Muscle Shoals, Alabama
Current Conditions -  °F | °C
As of 5:53 PM on Wednesday 26 Nov 2014 (Local Time) from KMSL Reporting Station
Overcast Overcast  
Wind Chill: 50°   Ceiling: 6500
Heat Index: 50°   Visibility: 10mi
Dew Point: 29°   Wind: 0mph
Humidity: 44%   Direction: NA
Pressure: 30.03"   Gusts: NA
Location:  34.74°N, 87.67°W
Report Text: KMSL 262353Z AUTO 00000KT 10SM BKN065 BKN085 OVC100 10/M02 A3003 RMK AO2 SLP170 6//// T01001017 10122 20094 53002 $
Loading
Personal Weather Stations






























Interactive Weather Map New forecast layout! Learn more

10-Day Weather Forecast

Advertisements
Track Severe Weather on mobile